createdAt,value
2022-08-06T00:00:02.442Z,38.90
2022-08-06T00:02:26.043Z,38.61
2022-08-06T00:04:58.715Z,38.69
2022-08-06T00:07:26.535Z,38.89
2022-08-06T00:10:00.854Z,39.06
2022-08-06T00:12:33.392Z,38.91
2022-08-06T00:15:12.486Z,39.26
2022-08-06T00:17:43.375Z,39.32
2022-08-06T00:20:25.605Z,39.04
2022-08-06T00:23:00.182Z,39.00
2022-08-06T00:25:29.324Z,38.99
2022-08-06T00:28:04.144Z,39.19
2022-08-06T00:30:37.639Z,39.33
2022-08-06T00:33:05.422Z,39.14
2022-08-06T00:35:33.593Z,39.17
2022-08-06T00:38:02.133Z,39.13
2022-08-06T00:40:31.272Z,38.92
2022-08-06T00:43:02.475Z,38.84
2022-08-06T00:45:38.331Z,39.05
2022-08-06T00:48:30.994Z,38.96
2022-08-06T00:51:02.285Z,39.27
2022-08-06T00:53:33.848Z,39.18
2022-08-06T00:56:08.593Z,39.40
2022-08-06T00:58:39.954Z,39.46
2022-08-06T01:01:17.433Z,39.07
2022-08-06T01:03:50.803Z,39.25
2022-08-06T01:06:56.283Z,39.28
2022-08-06T01:09:10.173Z,39.61
2022-08-06T01:11:41.270Z,39.55
2022-08-06T01:14:10.551Z,39.65
2022-08-06T01:16:45.234Z,39.69
2022-08-06T01:19:29.855Z,40.07
2022-08-06T01:22:33.695Z,40.28
2022-08-06T01:25:46.244Z,40.50
2022-08-06T01:28:28.650Z,40.81
2022-08-06T01:31:10.417Z,40.61
2022-08-06T01:33:58.228Z,41.05
2022-08-06T01:36:30.928Z,41.58
2022-08-06T01:39:01.282Z,41.85
2022-08-06T01:41:58.244Z,41.97
2022-08-06T01:44:31.132Z,41.95
2022-08-06T01:47:02.125Z,41.93
2022-08-06T01:50:00.215Z,41.67
2022-08-06T01:52:29.380Z,42.15
2022-08-06T01:54:59.414Z,42.42
2022-08-06T01:57:32.822Z,42.50
2022-08-06T02:00:16.069Z,42.55
2022-08-06T02:02:45.121Z,42.21
2022-08-06T02:05:14.788Z,42.47
2022-08-06T02:08:36.552Z,42.82
2022-08-06T02:10:34.307Z,42.98
2022-08-06T02:13:03.306Z,42.38
2022-08-06T02:15:34.809Z,42.88
2022-08-06T02:18:34.248Z,42.96
2022-08-06T02:21:18.777Z,42.69
2022-08-06T02:23:57.332Z,42.60
2022-08-06T02:26:25.947Z,42.70
2022-08-06T02:29:01.777Z,42.95
2022-08-06T02:31:29.585Z,43.20
2022-08-06T02:34:15.520Z,42.99
2022-08-06T02:36:50.031Z,42.82
2022-08-06T02:39:51.879Z,42.93
2022-08-06T02:42:38.056Z,42.88
2022-08-06T02:45:16.672Z,42.94
2022-08-06T02:48:04.874Z,42.85
2022-08-06T02:50:39.062Z,42.92
2022-08-06T02:53:24.344Z,42.94
2022-08-06T02:55:59.107Z,43.50
2022-08-06T02:58:36.782Z,43.13
2022-08-06T03:01:21.632Z,43.28
2022-08-06T03:03:55.065Z,43.30
2022-08-06T03:06:30.853Z,43.12
2022-08-06T03:09:00.517Z,43.36
2022-08-06T03:11:32.420Z,43.11
2022-08-06T03:14:31.908Z,43.01
2022-08-06T03:16:52.446Z,43.00
2022-08-06T03:19:53.518Z,43.11
2022-08-06T03:22:11.657Z,43.00
2022-08-06T03:24:47.025Z,42.74
2022-08-06T03:27:16.990Z,42.81
2022-08-06T03:29:49.263Z,43.07
2022-08-06T03:32:51.084Z,43.16
2022-08-06T03:35:42.163Z,43.23
2022-08-06T03:38:03.071Z,42.91
2022-08-06T03:40:32.428Z,43.01
2022-08-06T03:43:00.712Z,43.11
2022-08-06T03:45:55.121Z,42.75
2022-08-06T03:48:35.611Z,42.99
2022-08-06T03:51:12.661Z,43.06
2022-08-06T03:53:44.821Z,42.93
2022-08-06T03:56:29.912Z,43.00
2022-08-06T03:59:04.755Z,42.86
2022-08-06T04:01:49.473Z,43.29
2022-08-06T04:04:26.028Z,43.27
2022-08-06T04:07:00.621Z,43.26
2022-08-06T04:10:00.817Z,43.09
2022-08-06T04:12:42.109Z,44.00
2022-08-06T04:15:10.544Z,43.83
2022-08-06T04:17:40.994Z,43.79
2022-08-06T04:20:12.359Z,44.29
2022-08-06T04:22:59.773Z,44.35
2022-08-06T04:25:29.629Z,43.51
2022-08-06T04:27:58.525Z,43.53
2022-08-06T04:30:27.728Z,43.28
2022-08-06T04:33:01.130Z,43.53
2022-08-06T04:36:06.927Z,43.55
2022-08-06T04:38:26.747Z,43.20
2022-08-06T04:40:58.044Z,42.87
2022-08-06T04:43:38.657Z,42.71
2022-08-06T04:46:17.105Z,42.62
2022-08-06T04:48:51.119Z,42.46
2022-08-06T04:52:36.457Z,42.55
2022-08-06T04:54:14.656Z,42.77
2022-08-06T04:56:49.827Z,42.34
2022-08-06T04:59:19.096Z,41.87
2022-08-06T05:01:57.392Z,40.46
2022-08-06T05:04:33.337Z,40.61
2022-08-06T05:07:10.665Z,40.45
2022-08-06T05:09:43.513Z,40.73
2022-08-06T05:12:32.985Z,40.96
2022-08-06T05:15:06.783Z,40.51
2022-08-06T05:17:41.113Z,40.73
2022-08-06T05:20:27.689Z,40.43
2022-08-06T05:23:03.488Z,40.40
2022-08-06T05:25:36.154Z,40.57
2022-08-06T05:28:11.282Z,40.91
2022-08-06T05:30:48.997Z,40.65
2022-08-06T05:33:32.153Z,40.46
2022-08-06T05:36:07.376Z,40.98
2022-08-06T05:38:58.606Z,40.92
2022-08-06T05:41:30.418Z,42.00
2022-08-06T05:44:02.165Z,42.83
2022-08-06T05:46:47.575Z,43.30
2022-08-06T05:49:57.911Z,43.92
2022-08-06T05:52:36.283Z,43.13
2022-08-06T05:55:06.011Z,43.66
2022-08-06T05:57:45.670Z,42.32
2022-08-06T06:00:41.450Z,42.29
2022-08-06T06:03:24.592Z,42.36
2022-08-06T06:06:03.944Z,42.09
2022-08-06T06:08:55.274Z,41.96
2022-08-06T06:11:47.060Z,41.68
2022-08-06T06:14:32.767Z,41.14
2022-08-06T06:17:22.910Z,41.06
2022-08-06T06:20:07.004Z,39.48
2022-08-06T06:22:53.013Z,38.83
2022-08-06T06:25:55.047Z,38.29
2022-08-06T06:28:29.394Z,36.16
2022-08-06T06:31:12.569Z,36.60
2022-08-06T06:34:10.087Z,36.53
2022-08-06T06:37:11.541Z,34.94
2022-08-06T06:40:14.702Z,34.85
2022-08-06T06:42:52.856Z,34.83
2022-08-06T06:46:07.507Z,33.86
2022-08-06T06:49:03.149Z,33.84
2022-08-06T06:51:56.716Z,34.00
2022-08-06T06:54:38.258Z,33.59
2022-08-06T06:57:09.023Z,32.87
2022-08-06T07:00:04.037Z,32.49
2022-08-06T07:02:27.919Z,33.54
2022-08-06T07:04:59.492Z,33.02
2022-08-06T07:07:28.695Z,33.05
2022-08-06T07:09:59.853Z,32.31
2022-08-06T07:12:31.637Z,32.84
2022-08-06T07:15:02.502Z,32.42
2022-08-06T07:17:58.933Z,31.84
2022-08-06T07:20:28.825Z,32.02
2022-08-06T07:24:03.648Z,31.89
2022-08-06T07:25:53.999Z,31.22
2022-08-06T07:28:28.235Z,31.60
2022-08-06T07:31:04.067Z,31.76
2022-08-06T07:34:00.259Z,32.20
2022-08-06T07:36:26.664Z,31.81
2022-08-06T07:39:00.648Z,31.62
2022-08-06T07:41:31.702Z,30.80
2022-08-06T07:44:17.917Z,30.98
2022-08-06T07:46:52.147Z,30.67
2022-08-06T07:49:23.011Z,31.54
2022-08-06T07:52:00.175Z,30.31
2022-08-06T07:54:34.269Z,30.88
2022-08-06T07:57:02.833Z,30.55
2022-08-06T07:59:31.180Z,30.58
2022-08-06T08:02:00.562Z,30.62
2022-08-06T08:04:52.401Z,30.37
2022-08-06T08:07:37.824Z,30.24
2022-08-06T08:10:10.507Z,30.28
2022-08-06T08:12:38.901Z,30.48
2022-08-06T08:15:18.692Z,30.54
2022-08-06T08:17:56.420Z,30.19
2022-08-06T08:20:33.623Z,30.08
2022-08-06T08:23:05.822Z,29.22
2022-08-06T08:25:40.947Z,29.30
2022-08-06T08:28:15.089Z,28.95
2022-08-06T08:30:47.858Z,29.25
2022-08-06T08:33:19.659Z,29.46
2022-08-06T08:35:49.203Z,28.69
2022-08-06T08:38:22.767Z,29.29
2022-08-06T08:40:55.483Z,28.66
2022-08-06T08:43:58.718Z,28.20
2022-08-06T08:46:16.036Z,28.60
2022-08-06T08:48:44.504Z,28.61
2022-08-06T08:51:13.568Z,29.01
2022-08-06T08:53:46.822Z,28.58
2022-08-06T08:57:10.866Z,27.57
2022-08-06T08:59:57.343Z,26.60
2022-08-06T09:01:57.079Z,27.22
2022-08-06T09:04:28.373Z,27.49
2022-08-06T09:06:57.276Z,27.84
2022-08-06T09:09:32.548Z,27.00
2022-08-06T09:12:05.975Z,26.85
2022-08-06T09:14:47.843Z,26.82
2022-08-06T09:17:18.095Z,26.67
2022-08-06T09:20:04.689Z,26.71
2022-08-06T09:22:35.091Z,25.85
2022-08-06T09:25:07.609Z,25.82
2022-08-06T09:27:47.049Z,25.98
2022-08-06T09:30:30.096Z,25.72
2022-08-06T09:33:04.041Z,25.17
2022-08-06T09:35:58.724Z,25.60
2022-08-06T09:38:27.512Z,25.27
2022-08-06T09:41:06.526Z,25.30
2022-08-06T09:44:03.020Z,25.45
2022-08-06T09:46:36.804Z,25.85
2022-08-06T09:49:48.236Z,26.30
2022-08-06T09:52:15.054Z,26.04
2022-08-06T09:54:46.431Z,25.52
2022-08-06T09:57:15.402Z,25.45
2022-08-06T09:59:49.991Z,25.31
2022-08-06T10:02:23.283Z,25.42
2022-08-06T10:04:52.302Z,25.56
2022-08-06T10:07:40.627Z,26.29
2022-08-06T10:10:09.505Z,24.99
2022-08-06T10:12:38.147Z,25.66
2022-08-06T10:15:08.534Z,24.96
2022-08-06T10:17:49.650Z,24.90
2022-08-06T10:20:20.240Z,25.19
2022-08-06T10:22:52.918Z,24.88
2022-08-06T10:25:29.437Z,25.01
2022-08-06T10:27:58.745Z,24.65
2022-08-06T10:30:30.082Z,25.44
2022-08-06T10:33:04.795Z,25.59
2022-08-06T10:35:45.662Z,24.64
2022-08-06T10:38:16.687Z,24.84
2022-08-06T10:40:58.659Z,24.82
2022-08-06T10:43:34.429Z,25.33
2022-08-06T10:46:06.368Z,24.50
2022-08-06T10:50:20.177Z,25.59
2022-08-06T10:51:53.023Z,24.46
2022-08-06T10:54:22.513Z,25.10
2022-08-06T10:56:52.388Z,24.64
2022-08-06T10:59:25.802Z,24.59
2022-08-06T11:02:26.984Z,24.18
2022-08-06T11:05:00.509Z,23.71
2022-08-06T11:08:09.907Z,24.65
2022-08-06T11:10:59.145Z,25.73
2022-08-06T11:13:37.462Z,25.13
2022-08-06T11:16:27.483Z,24.66
2022-08-06T11:19:23.055Z,25.65
2022-08-06T11:21:58.881Z,25.65
2022-08-06T11:24:32.228Z,25.96
2022-08-06T11:27:11.426Z,26.11
2022-08-06T11:30:07.924Z,26.34
2022-08-06T11:32:50.730Z,26.23
2022-08-06T11:35:47.432Z,26.55
2022-08-06T11:38:48.699Z,26.59
2022-08-06T11:41:55.247Z,26.24
2022-08-06T11:44:11.896Z,26.22
2022-08-06T11:46:48.332Z,27.32
2022-08-06T11:49:20.577Z,26.62
2022-08-06T11:52:05.899Z,27.27
2022-08-06T11:54:56.017Z,27.54
2022-08-06T11:57:40.805Z,27.01
2022-08-06T12:00:14.964Z,28.08
2022-08-06T12:02:47.288Z,27.97
2022-08-06T12:05:17.257Z,28.07
2022-08-06T12:08:22.200Z,27.70
2022-08-06T12:11:24.946Z,27.81
2022-08-06T12:14:32.327Z,27.67
2022-08-06T12:16:41.445Z,28.39
2022-08-06T12:19:21.801Z,27.90
2022-08-06T12:21:56.850Z,28.85
2022-08-06T12:24:45.473Z,28.60
2022-08-06T12:27:24.278Z,28.70
2022-08-06T12:29:59.649Z,28.63
2022-08-06T12:32:30.883Z,29.02
2022-08-06T12:35:00.893Z,28.66
2022-08-06T12:37:41.235Z,29.26
2022-08-06T12:40:34.653Z,29.24
2022-08-06T12:43:14.236Z,29.55
2022-08-06T12:46:06.171Z,29.15
2022-08-06T12:48:31.919Z,29.63
2022-08-06T12:51:11.413Z,29.92
2022-08-06T12:53:53.290Z,29.68
2022-08-06T12:56:31.559Z,30.03
2022-08-06T12:59:03.814Z,29.26
2022-08-06T13:02:09.175Z,29.71
2022-08-06T13:04:20.892Z,29.86
2022-08-06T13:06:49.438Z,29.67
2022-08-06T13:09:19.272Z,29.15
2022-08-06T13:11:50.942Z,29.13
2022-08-06T13:14:20.445Z,28.68
2022-08-06T13:16:57.298Z,29.36
2022-08-06T13:19:28.278Z,29.65
2022-08-06T13:22:03.279Z,29.74
2022-08-06T13:24:34.464Z,29.96
2022-08-06T13:27:06.140Z,29.99
2022-08-06T13:30:31.069Z,29.76
2022-08-06T13:32:34.197Z,29.88
2022-08-06T13:35:16.784Z,29.81
2022-08-06T13:37:56.636Z,30.32
2022-08-06T13:40:41.816Z,30.70
2022-08-06T13:43:10.728Z,30.74
2022-08-06T13:46:29.306Z,30.69
2022-08-06T13:49:01.345Z,31.22
2022-08-06T13:51:35.094Z,31.68
2022-08-06T13:54:16.186Z,32.25
2022-08-06T13:56:49.319Z,32.25
2022-08-06T13:59:21.745Z,32.13
2022-08-06T14:02:08.110Z,32.72
2022-08-06T14:04:36.911Z,32.64
2022-08-06T14:07:05.397Z,32.60
2022-08-06T14:09:58.424Z,32.67
2022-08-06T14:12:20.854Z,33.62
2022-08-06T14:14:48.627Z,33.40
2022-08-06T14:17:18.002Z,33.46
2022-08-06T14:20:14.682Z,33.40
2022-08-06T14:22:36.746Z,33.47
2022-08-06T14:25:05.463Z,33.85
2022-08-06T14:27:43.515Z,34.47
2022-08-06T14:30:27.068Z,34.09
2022-08-06T14:33:10.135Z,34.70
2022-08-06T14:35:50.183Z,34.87
2022-08-06T14:38:18.298Z,34.67
2022-08-06T14:41:04.349Z,34.61
2022-08-06T14:43:56.198Z,34.70
2022-08-06T14:46:26.968Z,34.74
2022-08-06T14:48:58.320Z,34.63
2022-08-06T14:51:37.545Z,35.01
2022-08-06T14:54:16.591Z,35.23
2022-08-06T14:56:45.886Z,34.97
2022-08-06T14:59:22.467Z,35.91
2022-08-06T15:01:51.648Z,36.19
2022-08-06T15:04:23.502Z,36.17
2022-08-06T15:06:59.108Z,36.27
2022-08-06T15:10:05.763Z,35.96
2022-08-06T15:12:34.553Z,36.65
2022-08-06T15:15:05.692Z,37.11
2022-08-06T15:18:03.922Z,37.40
2022-08-06T15:20:25.345Z,37.19
2022-08-06T15:22:54.027Z,37.72
2022-08-06T15:25:59.954Z,37.00
2022-08-06T15:28:12.073Z,37.51
2022-08-06T15:30:39.510Z,37.18
2022-08-06T15:33:08.089Z,37.17
2022-08-06T15:35:56.993Z,36.99
2022-08-06T15:38:32.524Z,37.30
2022-08-06T15:41:01.286Z,37.18
2022-08-06T15:43:44.408Z,36.74
2022-08-06T15:46:14.597Z,37.29
2022-08-06T15:48:47.165Z,37.62
2022-08-06T15:51:28.539Z,37.24
2022-08-06T15:53:59.617Z,37.04
2022-08-06T15:56:34.446Z,37.73
2022-08-06T15:59:11.513Z,38.33
2022-08-06T16:02:02.088Z,38.43
2022-08-06T16:04:35.805Z,38.22
2022-08-06T16:07:05.731Z,38.34
2022-08-06T16:10:01.356Z,38.56
2022-08-06T16:12:25.466Z,38.38
2022-08-06T16:14:54.434Z,38.48
2022-08-06T16:17:52.651Z,38.17
2022-08-06T16:20:20.531Z,38.13
2022-08-06T16:22:52.199Z,38.44
2022-08-06T16:25:22.008Z,38.40
2022-08-06T16:27:51.745Z,38.90
2022-08-06T16:30:21.158Z,38.63
2022-08-06T16:32:49.728Z,38.85
2022-08-06T16:35:21.245Z,39.41
2022-08-06T16:37:52.036Z,38.81
2022-08-06T16:40:21.917Z,38.39
2022-08-06T16:42:52.765Z,38.84
2022-08-06T16:45:23.258Z,38.89
2022-08-06T16:48:04.246Z,38.88
2022-08-06T16:50:41.038Z,38.84
2022-08-06T16:54:08.784Z,38.66
2022-08-06T16:55:57.018Z,39.10
2022-08-06T17:02:14.587Z,39.46
2022-08-06T17:04:00.769Z,39.59
2022-08-06T17:06:47.324Z,39.70
2022-08-06T17:09:17.187Z,39.59
2022-08-06T17:11:58.261Z,39.29
2022-08-06T17:14:27.873Z,39.21
2022-08-06T17:16:58.692Z,39.67
2022-08-06T17:19:29.750Z,39.83
2022-08-06T17:22:00.370Z,39.76
2022-08-06T17:24:33.133Z,39.69
2022-08-06T17:27:10.289Z,39.30
2022-08-06T17:29:46.630Z,40.19
2022-08-06T17:32:30.165Z,40.37
2022-08-06T17:35:06.573Z,40.45
2022-08-06T17:37:44.467Z,41.30
2022-08-06T17:40:18.812Z,40.79
2022-08-06T17:42:56.201Z,40.69
2022-08-06T17:45:23.788Z,41.17
2022-08-06T17:47:52.590Z,41.05
2022-08-06T17:50:20.641Z,40.53
2022-08-06T17:52:48.164Z,40.72
2022-08-06T17:55:17.216Z,40.50
2022-08-06T17:58:03.866Z,40.91
2022-08-06T18:00:37.361Z,40.66
2022-08-06T18:03:23.945Z,40.85
2022-08-06T18:06:03.486Z,40.89
2022-08-06T18:08:50.586Z,41.23
2022-08-06T18:11:20.661Z,40.98
2022-08-06T18:13:52.201Z,41.10
2022-08-06T18:16:22.258Z,40.93
2022-08-06T18:18:57.979Z,41.12
2022-08-06T18:21:27.427Z,41.27
2022-08-06T18:23:56.852Z,41.79
2022-08-06T18:26:30.698Z,41.40
2022-08-06T18:29:05.989Z,42.01
2022-08-06T18:31:58.818Z,41.66
2022-08-06T18:34:29.454Z,42.26
2022-08-06T18:37:05.545Z,42.31
2022-08-06T18:40:19.091Z,41.86
2022-08-06T18:42:36.092Z,42.21
2022-08-06T18:45:04.541Z,42.63
2022-08-06T18:47:33.378Z,42.45
2022-08-06T18:50:01.460Z,42.26
2022-08-06T18:52:33.712Z,41.95
2022-08-06T18:55:03.785Z,42.35
2022-08-06T18:58:01.208Z,42.00
2022-08-06T19:00:23.747Z,41.98
2022-08-06T19:03:00.713Z,42.36
2022-08-06T19:05:29.665Z,42.09
2022-08-06T19:08:00.164Z,42.22
2022-08-06T19:10:33.243Z,42.20
2022-08-06T19:13:08.538Z,42.47
2022-08-06T19:15:46.445Z,42.47
2022-08-06T19:18:25.560Z,42.25
2022-08-06T19:20:53.541Z,42.40
2022-08-06T19:24:00.897Z,42.58
2022-08-06T19:26:12.796Z,42.66
2022-08-06T19:28:49.119Z,42.45
2022-08-06T19:31:23.364Z,42.68
2022-08-06T19:34:14.122Z,42.35
2022-08-06T19:36:48.185Z,43.37
2022-08-06T19:39:53.425Z,42.85
2022-08-06T19:42:31.688Z,42.53
2022-08-06T19:45:04.533Z,42.15
2022-08-06T19:47:47.878Z,42.41
2022-08-06T19:50:17.040Z,42.16
2022-08-06T19:52:47.222Z,42.31
2022-08-06T19:56:09.285Z,42.53
2022-08-06T19:58:26.644Z,42.15
2022-08-06T20:01:04.947Z,42.32
2022-08-06T20:03:38.779Z,42.72
2022-08-06T20:06:19.664Z,43.17
2022-08-06T20:08:49.761Z,42.92
2022-08-06T20:12:02.974Z,43.09
2022-08-06T20:14:04.700Z,43.29
2022-08-06T20:16:34.103Z,43.52
2022-08-06T20:19:01.534Z,43.47
2022-08-06T20:21:42.410Z,43.66
2022-08-06T20:24:10.851Z,44.06
2022-08-06T20:26:51.340Z,43.95
2022-08-06T20:29:34.796Z,44.31
2022-08-06T20:32:16.893Z,44.16
2022-08-06T20:34:48.261Z,44.90
2022-08-06T20:37:16.511Z,45.69
2022-08-06T20:39:48.490Z,45.05
2022-08-06T20:42:20.875Z,45.10
2022-08-06T20:44:51.771Z,45.43
2022-08-06T20:47:45.342Z,45.47
2022-08-06T20:50:10.904Z,45.48
2022-08-06T20:52:42.764Z,45.24
2022-08-06T20:55:13.391Z,45.58
2022-08-06T20:57:48.236Z,45.74
2022-08-06T21:00:22.085Z,45.95
2022-08-06T21:03:03.009Z,45.80
2022-08-06T21:05:51.050Z,46.26
2022-08-06T21:08:26.434Z,45.50
2022-08-06T21:10:58.404Z,46.14
2022-08-06T21:13:29.574Z,45.53
2022-08-06T21:16:14.295Z,45.68
2022-08-06T21:18:50.382Z,45.84
2022-08-06T21:21:17.728Z,45.66
2022-08-06T21:23:56.095Z,45.35
2022-08-06T21:26:34.895Z,45.63
2022-08-06T21:29:41.648Z,45.35
2022-08-06T21:31:54.038Z,45.24
2022-08-06T21:34:27.197Z,45.68
2022-08-06T21:36:56.441Z,45.32
2022-08-06T21:39:52.648Z,45.17
2022-08-06T21:42:13.112Z,45.31
2022-08-06T21:44:41.459Z,45.36
2022-08-06T21:47:09.891Z,45.70
2022-08-06T21:49:58.908Z,45.82
2022-08-06T21:52:28.039Z,46.07
2022-08-06T21:55:05.362Z,45.52
2022-08-06T21:57:48.365Z,45.38
2022-08-06T22:00:40.224Z,45.79
2022-08-06T22:04:35.677Z,45.87
2022-08-06T22:06:21.786Z,45.88
2022-08-06T22:08:48.066Z,46.38
2022-08-06T22:12:39.673Z,47.20
2022-08-06T22:14:15.638Z,48.29
2022-08-06T22:16:48.803Z,47.34
2022-08-06T22:19:33.483Z,47.51
2022-08-06T22:22:07.720Z,47.29
2022-08-06T22:24:37.664Z,47.09
2022-08-06T22:27:06.394Z,47.62
2022-08-06T22:29:57.111Z,47.60
2022-08-06T22:32:24.452Z,47.46
2022-08-06T22:34:52.585Z,47.28
2022-08-06T22:38:15.238Z,47.89
2022-08-06T22:40:09.478Z,47.78
2022-08-06T22:42:59.128Z,47.77
2022-08-06T22:45:59.865Z,47.78
2022-08-06T22:48:14.010Z,47.29
2022-08-06T22:50:42.029Z,47.29
2022-08-06T22:54:27.111Z,47.25
2022-08-06T22:56:07.863Z,47.41
2022-08-06T22:59:05.429Z,47.30
2022-08-06T23:02:07.266Z,47.29
2022-08-06T23:04:10.933Z,47.41
2022-08-06T23:06:38.544Z,47.54
2022-08-06T23:09:10.066Z,47.06
2022-08-06T23:11:59.189Z,47.67
2022-08-06T23:14:32.152Z,47.58
2022-08-06T23:17:02.622Z,48.09
2022-08-06T23:19:34.687Z,47.93
2022-08-06T23:22:05.339Z,47.79
2022-08-06T23:24:36.383Z,47.29
2022-08-06T23:27:06.898Z,48.20
2022-08-06T23:30:10.688Z,48.39
2022-08-06T23:32:30.112Z,48.29
2022-08-06T23:34:59.504Z,48.70
2022-08-06T23:37:31.876Z,49.01
2022-08-06T23:40:12.122Z,48.96
2022-08-06T23:42:45.206Z,49.02
2022-08-06T23:45:12.867Z,49.14
2022-08-06T23:47:54.002Z,49.42
2022-08-06T23:50:26.141Z,49.63
2022-08-06T23:53:06.611Z,49.30
2022-08-06T23:55:37.107Z,49.12
2022-08-06T23:58:08.653Z,49.33
